Time;durP1;ratioP1;P1;durP2;ratioP2;P2;SDS_P1;SDS_P2;PMS_P1;PMS_P2;Temp;Humidity;BMP_temperature;BMP_pressure;BME280_temperature;BME280_humidity;BME280_pressure;Samples;Min_cycle;Max_cycle;Signal;HPM_P1;HPM_P2
2022/10/23 00:01:17;;;;;;;149.80;43.03;;;11.10;99.90;;;;;;5132928;27;20290;-51
2022/10/23 00:03:45;;;;;;;593.97;376.10;;;11.10;99.90;;;;;;5131919;27;20245;-51
2022/10/23 00:06:14;;;;;;;398.60;218.00;;;11.10;99.90;;;;;;5133096;27;20233;-51
2022/10/23 00:08:43;;;;;;;302.50;138.83;;;11.00;99.90;;;;;;5133085;27;20246;-50
2022/10/23 00:11:13;;;;;;;86.80;34.63;;;11.00;99.90;;;;;;5132865;27;20294;-51
2022/10/23 00:13:42;;;;;;;322.47;194.23;;;11.00;99.90;;;;;;5131963;27;20230;-52
2022/10/23 00:16:10;;;;;;;464.57;217.33;;;10.90;99.90;;;;;;5132701;27;20211;-51
2022/10/23 00:18:40;;;;;;;28.37;17.03;;;10.90;99.90;;;;;;5131949;27;20235;-51
2022/10/23 00:21:10;;;;;;;421.50;200.90;;;10.90;99.90;;;;;;5132922;27;20637;-51
2022/10/23 00:23:39;;;;;;;237.60;117.43;;;10.90;99.90;;;;;;5132403;27;20289;-51
2022/10/23 00:26:09;;;;;;;206.67;90.87;;;10.90;99.90;;;;;;5131825;27;20645;-51
2022/10/23 00:28:38;;;;;;;143.20;55.90;;;11.00;99.90;;;;;;5131282;27;20219;-51
2022/10/23 00:31:06;;;;;;;307.20;138.70;;;10.90;99.90;;;;;;5132487;27;20619;-51
2022/10/23 00:33:34;;;;;;;307.10;120.50;;;10.90;99.90;;;;;;5140861;27;20214;-51
2022/10/23 00:36:06;;;;;;;219.87;118.13;;;10.80;99.90;;;;;;5145728;27;20289;-52
2022/10/23 00:38:35;;;;;;;120.00;57.83;;;10.80;99.90;;;;;;5153320;27;20249;-51
2022/10/23 00:41:03;;;;;;;417.03;187.53;;;10.80;99.90;;;;;;5153165;27;20328;-51
2022/10/23 00:43:33;;;;;;;378.90;149.00;;;10.70;99.90;;;;;;5152803;27;20225;-51
2022/10/23 00:46:01;;;;;;;295.53;138.17;;;10.70;99.90;;;;;;5152883;27;20587;-51
2022/10/23 00:48:29;;;;;;;244.00;113.57;;;10.70;99.90;;;;;;5139105;27;20738;-50
2022/10/23 00:50:57;;;;;;;165.47;70.23;;;10.70;99.90;;;;;;5152986;27;20206;-51
2022/10/23 00:53:27;;;;;;;114.47;54.97;;;10.70;99.90;;;;;;5153544;27;20289;-51
2022/10/23 00:55:56;;;;;;;369.83;182.13;;;10.70;99.90;;;;;;5146034;27;20294;-51
2022/10/23 00:58:24;;;;;;;472.83;207.37;;;10.60;99.90;;;;;;5154426;27;20226;-52
2022/10/23 01:00:54;;;;;;;443.63;218.23;;;10.60;99.90;;;;;;5148820;27;20289;-51
2022/10/23 01:03:27;;;;;;;146.93;84.83;;;10.50;99.90;;;;;;5152755;27;20252;-50
2022/10/23 01:06:05;;;;;;;110.47;54.83;;;10.50;99.90;;;;;;5153390;27;20294;-50
2022/10/23 01:08:41;;;;;;;168.50;62.80;;;10.50;99.90;;;;;;5143373;27;20195;-52
2022/10/23 01:11:14;;;;;;;147.20;63.87;;;10.50;99.90;;;;;;5152324;27;20292;-51
2022/10/23 01:13:49;;;;;;;99.37;53.67;;;10.50;99.90;;;;;;5152122;27;20288;-51
2022/10/23 01:16:23;;;;;;;44.80;20.40;;;10.40;99.90;;;;;;5143953;27;20236;-52
2022/10/23 01:18:58;;;;;;;228.80;124.07;;;10.40;99.90;;;;;;5149814;27;20305;-51
2022/10/23 01:21:34;;;;;;;141.70;72.77;;;10.40;99.90;;;;;;5148260;27;20749;-50
2022/10/23 01:24:24;;;;;;;56.77;23.00;;;10.50;99.90;;;;;;5151954;27;20225;-50
2022/10/23 01:27:19;;;;;;;264.67;131.83;;;10.50;99.90;;;;;;5151576;27;20230;-51
2022/10/23 01:29:52;;;;;;;34.63;20.00;;;10.40;99.90;;;;;;5125569;27;20572;-49
2022/10/23 01:32:30;;;;;;;90.97;46.37;;;10.40;99.90;;;;;;5130925;27;20210;-51
2022/10/23 01:35:04;;;;;;;242.30;121.60;;;10.40;99.90;;;;;;5131046;27;20221;-51
2022/10/23 01:37:40;;;;;;;417.47;234.77;;;10.40;99.90;;;;;;5130929;27;20313;-50
2022/10/23 01:40:14;;;;;;;235.70;89.53;;;10.40;99.90;;;;;;5130775;27;20766;-51
2022/10/23 01:42:49;;;;;;;82.97;40.20;;;10.40;99.90;;;;;;5131016;27;20293;-51
2022/10/23 01:45:24;;;;;;;17.13;7.77;;;10.40;99.90;;;;;;5130113;27;20199;-51
2022/10/23 01:47:55;;;;;;;83.37;41.43;;;10.30;99.90;;;;;;5130275;27;20245;-51
2022/10/23 01:50:25;;;;;;;201.70;74.90;;;10.30;99.90;;;;;;5130840;27;20282;-50
2022/10/23 01:52:53;;;;;;;159.87;72.70;;;10.30;99.90;;;;;;5130670;27;20293;-51
2022/10/23 01:55:24;;;;;;;457.63;133.80;;;10.30;99.90;;;;;;5130734;27;20205;-51
2022/10/23 01:57:54;;;;;;;78.83;29.27;;;10.40;99.90;;;;;;5130408;27;20226;-50
2022/10/23 02:00:22;;;;;;;219.20;73.57;;;10.40;99.90;;;;;;5130829;27;20294;-51
2022/10/23 02:02:52;;;;;;;53.57;22.63;;;10.40;99.90;;;;;;5137001;27;20287;-51
2022/10/23 02:05:24;;;;;;;359.47;159.07;;;10.40;99.90;;;;;;5137521;27;20199;-50
2022/10/23 02:07:53;;;;;;;158.47;86.83;;;10.40;99.90;;;;;;5116612;27;20305;-51
2022/10/23 02:10:23;;;;;;;120.40;61.17;;;10.30;99.90;;;;;;5130136;27;20206;-51
2022/10/23 02:12:59;;;;;;;193.67;85.67;;;10.30;99.90;;;;;;5129781;27;20578;-51
2022/10/23 02:15:32;;;;;;;206.73;103.47;;;10.20;99.90;;;;;;5130697;27;20298;-51
2022/10/23 02:18:08;;;;;;;285.27;113.90;;;10.20;99.90;;;;;;5115583;27;20232;-51
2022/10/23 02:20:40;;;;;;;14.20;6.90;;;10.20;99.90;;;;;;5130039;27;20230;-50
2022/10/23 02:23:18;;;;;;;111.53;31.03;;;10.20;99.90;;;;;;5116358;27;20194;-50
2022/10/23 02:25:53;;;;;;;62.60;29.23;;;10.20;99.90;;;;;;5130134;27;20293;-50
2022/10/23 02:28:28;;;;;;;485.80;187.30;;;10.20;99.90;;;;;;5130967;27;20230;-52
2022/10/23 02:30:59;;;;;;;165.03;55.00;;;10.20;99.90;;;;;;5134752;27;20323;-51
2022/10/23 02:33:30;;;;;;;119.07;44.80;;;10.30;99.90;;;;;;5133661;27;20306;-50
2022/10/23 02:35:58;;;;;;;310.30;130.97;;;10.30;99.90;;;;;;5128003;27;20247;-50
2022/10/23 02:38:30;;;;;;;126.50;64.13;;;10.30;99.90;;;;;;5130417;27;20286;-51
2022/10/23 02:41:16;;;;;;;61.37;28.23;;;10.30;99.90;;;;;;5130589;27;20298;-51
2022/10/23 02:43:53;;;;;;;48.47;23.40;;;10.30;99.90;;;;;;5115735;28;20261;-51
2022/10/23 02:46:29;;;;;;;97.53;46.37;;;10.30;99.90;;;;;;5129813;27;20246;-50
2022/10/23 02:49:04;;;;;;;353.60;155.67;;;10.30;99.90;;;;;;5130273;27;20280;-51
2022/10/23 02:51:40;;;;;;;37.27;17.20;;;10.20;99.90;;;;;;5129977;27;20864;-51
2022/10/23 02:54:16;;;;;;;292.40;104.13;;;10.20;99.90;;;;;;5118162;28;20289;-51
2022/10/23 02:56:51;;;;;;;290.53;136.63;;;10.20;99.90;;;;;;5129794;27;20315;-51
2022/10/23 02:59:27;;;;;;;126.20;54.40;;;10.20;99.90;;;;;;5130628;27;20309;-51
2022/10/23 03:02:02;;;;;;;39.47;10.27;;;10.10;99.90;;;;;;5128267;27;20202;-51
2022/10/23 03:04:32;;;;;;;278.27;146.10;;;10.10;99.90;;;;;;5130582;27;20210;-51
2022/10/23 03:07:00;;;;;;;308.03;117.40;;;10.10;99.90;;;;;;5129808;27;20322;-51
2022/10/23 03:09:28;;;;;;;296.50;132.40;;;10.10;99.90;;;;;;5130097;27;20697;-51
2022/10/23 03:11:56;;;;;;;246.70;141.40;;;10.00;99.90;;;;;;5129603;27;20207;-51
2022/10/23 03:14:26;;;;;;;91.87;35.07;;;10.00;99.90;;;;;;5129902;27;20293;-50
2022/10/23 03:16:54;;;;;;;15.30;10.10;;;10.00;99.90;;;;;;5129751;27;20258;-51
2022/10/23 03:19:22;;;;;;;41.50;19.90;;;10.00;99.90;;;;;;5129512;27;20309;-51
2022/10/23 03:21:50;;;;;;;178.10;59.40;;;10.10;99.90;;;;;;5129465;27;20207;-50
2022/10/23 03:24:18;;;;;;;419.47;179.07;;;10.10;99.90;;;;;;5129839;27;20207;-52
2022/10/23 03:26:46;;;;;;;303.13;121.27;;;10.10;99.90;;;;;;5129602;27;20321;-51
2022/10/23 03:29:14;;;;;;;169.17;71.87;;;10.10;99.90;;;;;;5116662;27;20206;-51
2022/10/23 03:31:44;;;;;;;193.60;64.87;;;10.10;99.90;;;;;;5129353;27;20326;-51
2022/10/23 03:34:13;;;;;;;116.97;47.93;;;10.00;99.90;;;;;;5129058;27;20286;-51
2022/10/23 03:36:41;;;;;;;527.87;287.83;;;10.00;99.90;;;;;;5129731;27;20239;-50
2022/10/23 03:39:10;;;;;;;101.47;39.53;;;10.00;99.90;;;;;;5131284;27;20317;-50
2022/10/23 03:41:38;;;;;;;236.33;80.53;;;10.00;99.90;;;;;;5133374;27;20638;-52
2022/10/23 03:44:06;;;;;;;283.53;107.57;;;10.00;99.90;;;;;;5132920;27;20259;-50
2022/10/23 03:46:34;;;;;;;505.93;250.67;;;10.00;99.90;;;;;;5132170;27;20309;-51
2022/10/23 03:49:04;;;;;;;25.97;15.47;;;10.00;99.90;;;;;;5133075;27;20213;-51
2022/10/23 03:51:32;;;;;;;130.30;49.90;;;10.00;99.90;;;;;;5130658;27;20694;-51
2022/10/23 03:54:00;;;;;;;237.47;84.50;;;10.00;99.90;;;;;;5132339;27;20722;-51
2022/10/23 03:56:28;;;;;;;126.20;57.10;;;10.00;99.90;;;;;;5132395;27;20229;-52
2022/10/23 03:58:56;;;;;;;140.30;69.10;;;10.00;99.90;;;;;;5132337;27;20638;-51
2022/10/23 04:01:24;;;;;;;118.60;50.43;;;10.10;99.90;;;;;;5132352;27;20329;-51
2022/10/23 04:03:53;;;;;;;264.87;108.47;;;10.00;99.90;;;;;;5132784;27;20209;-51
2022/10/23 04:06:22;;;;;;;93.80;36.67;;;10.00;99.90;;;;;;5133113;27;20207;-51
2022/10/23 04:08:50;;;;;;;135.77;52.33;;;9.90;99.90;;;;;;5133128;27;20199;-51
2022/10/23 04:11:18;;;;;;;326.50;134.60;;;9.90;99.90;;;;;;5132120;27;20227;-51
2022/10/23 04:13:47;;;;;;;125.67;46.97;;;10.00;99.90;;;;;;5132640;27;20313;-51
2022/10/23 04:16:15;;;;;;;138.53;52.40;;;10.00;99.90;;;;;;5132712;27;20198;-51
2022/10/23 04:18:43;;;;;;;174.13;78.37;;;10.00;99.90;;;;;;5132035;27;20219;-51
2022/10/23 04:21:12;;;;;;;110.13;54.77;;;10.00;99.90;;;;;;5132880;27;20234;-51
2022/10/23 04:23:41;;;;;;;143.97;60.80;;;10.10;99.90;;;;;;5132324;27;20294;-51
2022/10/23 04:26:09;;;;;;;95.33;37.53;;;10.10;99.90;;;;;;5131959;27;20721;-51
2022/10/23 04:28:37;;;;;;;57.30;25.00;;;10.00;99.90;;;;;;5134618;27;20332;-51
2022/10/23 04:31:06;;;;;;;90.90;41.97;;;10.00;99.90;;;;;;5128200;27;20586;-51
2022/10/23 04:33:34;;;;;;;133.97;69.93;;;10.00;99.90;;;;;;5143540;27;20211;-51
2022/10/23 04:36:02;;;;;;;91.53;37.43;;;10.00;99.90;;;;;;5148172;27;20205;-50
2022/10/23 04:38:30;;;;;;;274.33;131.23;;;10.00;99.90;;;;;;5146860;27;20678;-51
2022/10/23 04:41:00;;;;;;;97.07;40.37;;;10.00;99.90;;;;;;5146584;27;20212;-51
2022/10/23 04:43:29;;;;;;;331.67;172.67;;;10.00;99.90;;;;;;5147125;27;20311;-50
2022/10/23 04:45:57;;;;;;;169.87;67.00;;;10.00;99.90;;;;;;5144803;27;20610;-51
2022/10/23 04:48:25;;;;;;;140.17;47.63;;;10.00;99.90;;;;;;5146734;27;20215;-51
2022/10/23 04:50:57;;;;;;;312.37;128.93;;;10.00;99.90;;;;;;5146914;27;20246;-51
2022/10/23 04:53:25;;;;;;;185.03;69.47;;;10.00;99.90;;;;;;5142776;27;20709;-51
2022/10/23 04:55:55;;;;;;;15.70;10.97;;;10.00;99.90;;;;;;5149661;27;20285;-51
2022/10/23 04:58:26;;;;;;;161.23;84.10;;;10.10;99.90;;;;;;5140859;27;20218;-49
2022/10/23 05:00:55;;;;;;;13.63;7.77;;;10.00;99.90;;;;;;5147747;27;20214;-50
2022/10/23 05:03:24;;;;;;;205.43;105.07;;;10.00;99.90;;;;;;5146375;27;20222;-51
2022/10/23 05:05:54;;;;;;;262.77;135.77;;;9.90;99.90;;;;;;5147133;27;20337;-51
2022/10/23 05:08:22;;;;;;;245.17;109.47;;;9.90;99.90;;;;;;5144640;27;20220;-51
2022/10/23 05:10:51;;;;;;;221.77;103.93;;;9.90;99.90;;;;;;5142377;27;20647;-51
2022/10/23 05:13:20;;;;;;;413.63;235.93;;;9.90;99.90;;;;;;5140085;27;20294;-52
2022/10/23 05:15:50;;;;;;;258.90;104.67;;;9.90;99.90;;;;;;5129201;27;20199;-51
2022/10/23 05:18:23;;;;;;;142.03;48.20;;;9.90;99.90;;;;;;5131480;27;20223;-51
2022/10/23 05:20:56;;;;;;;54.77;25.50;;;9.90;99.90;;;;;;5135196;27;20777;-49
2022/10/23 05:23:25;;;;;;;216.67;82.67;;;9.90;99.90;;;;;;5149856;27;20211;-51
2022/10/23 05:25:53;;;;;;;484.30;258.60;;;9.90;99.90;;;;;;5132820;27;20298;-52
2022/10/23 05:28:21;;;;;;;834.23;253.40;;;9.90;99.90;;;;;;5136273;27;20239;-51
2022/10/23 05:30:51;;;;;;;172.63;85.93;;;9.90;99.90;;;;;;5140263;27;20230;-50
2022/10/23 05:33:19;;;;;;;78.33;30.57;;;9.90;99.90;;;;;;5144651;27;20236;-51
2022/10/23 05:35:47;;;;;;;267.80;151.50;;;10.00;99.90;;;;;;5140537;27;20233;-50
2022/10/23 05:38:16;;;;;;;185.87;103.30;;;9.90;99.90;;;;;;5132936;27;20236;-52
2022/10/23 05:40:44;;;;;;;670.93;351.70;;;9.90;99.90;;;;;;5144882;27;20224;-51
2022/10/23 05:43:12;;;;;;;174.03;94.97;;;9.90;99.90;;;;;;5147873;27;20202;-51
2022/10/23 05:45:40;;;;;;;114.60;45.77;;;9.90;99.90;;;;;;5145550;27;20304;-51
2022/10/23 05:48:10;;;;;;;146.60;62.43;;;9.90;99.90;;;;;;5144232;27;20430;-51
2022/10/23 05:51:03;;;;;;;139.83;63.37;;;9.90;99.90;;;;;;5143063;27;20200;-51
2022/10/23 05:53:31;;;;;;;252.20;130.83;;;9.90;99.90;;;;;;5147381;27;20294;-50
2022/10/23 05:56:05;;;;;;;102.83;46.07;;;9.90;99.90;;;;;;5148743;27;20703;-51
2022/10/23 05:58:33;;;;;;;232.33;110.37;;;9.90;99.90;;;;;;5148632;27;20242;-50
2022/10/23 06:01:05;;;;;;;361.43;201.97;;;9.90;99.90;;;;;;5143617;27;20322;-51
2022/10/23 06:03:36;;;;;;;202.73;115.73;;;9.80;99.90;;;;;;5143553;27;20204;-51
2022/10/23 06:06:05;;;;;;;376.27;217.83;;;9.80;99.90;;;;;;5144260;27;20301;-52
2022/10/23 06:08:34;;;;;;;121.77;62.30;;;9.80;99.90;;;;;;5116455;27;20214;-50
2022/10/23 06:11:06;;;;;;;459.13;247.10;;;9.80;99.90;;;;;;5128797;27;20229;-51
2022/10/23 06:13:35;;;;;;;167.10;82.77;;;9.80;99.90;;;;;;5129160;27;20327;-51
2022/10/23 06:16:09;;;;;;;79.43;37.73;;;9.80;99.90;;;;;;5130378;27;20292;-50
2022/10/23 06:18:39;;;;;;;203.67;113.33;;;9.90;99.90;;;;;;5118385;27;20929;-49
2022/10/23 06:21:07;;;;;;;63.20;31.40;;;9.90;99.90;;;;;;5124490;27;20605;-51
2022/10/23 06:23:37;;;;;;;214.70;74.00;;;10.00;99.90;;;;;;5125769;27;20290;-51
2022/10/23 06:26:06;;;;;;;403.77;194.93;;;10.00;99.90;;;;;;5125311;27;20207;-52
2022/10/23 06:28:34;;;;;;;357.83;181.37;;;10.00;99.90;;;;;;5126100;27;20669;-51
2022/10/23 06:31:05;;;;;;;25.97;11.17;;;10.00;99.90;;;;;;5126338;27;20290;-50
2022/10/23 06:33:33;;;;;;;14.27;10.40;;;10.10;99.90;;;;;;5126129;27;20313;-51
2022/10/23 06:36:04;;;;;;;10.50;8.87;;;10.10;99.90;;;;;;5129823;27;20534;-51
2022/10/23 06:38:35;;;;;;;90.13;45.83;;;10.10;99.90;;;;;;5124159;28;20209;-51
2022/10/23 06:41:04;;;;;;;375.03;213.83;;;10.10;99.90;;;;;;5122697;28;20298;-51
2022/10/23 06:43:33;;;;;;;304.43;157.97;;;10.10;99.90;;;;;;5130561;27;20289;-51
2022/10/23 06:46:02;;;;;;;425.57;234.50;;;10.10;99.90;;;;;;5130103;27;20717;-51
2022/10/23 06:48:30;;;;;;;446.90;236.87;;;10.10;99.90;;;;;;5130508;27;20214;-50
2022/10/23 06:50:59;;;;;;;202.00;103.70;;;10.10;99.90;;;;;;5130385;27;20208;-49
2022/10/23 06:53:28;;;;;;;446.43;251.03;;;10.10;99.90;;;;;;5130379;27;20322;-51
2022/10/23 06:55:59;;;;;;;231.90;118.10;;;10.20;99.90;;;;;;5130372;27;20286;-51
2022/10/23 06:58:27;;;;;;;368.43;224.90;;;10.20;99.90;;;;;;5130722;27;20246;-51
2022/10/23 07:00:55;;;;;;;258.30;132.77;;;10.30;99.90;;;;;;5130109;27;20219;-51
2022/10/23 07:03:23;;;;;;;290.20;112.07;;;10.30;99.90;;;;;;5123187;27;20206;-51
2022/10/23 07:05:52;;;;;;;157.50;38.53;;;10.40;99.90;;;;;;5126885;27;20293;-51
2022/10/23 07:08:20;;;;;;;433.33;220.17;;;10.40;99.90;;;;;;5121850;27;20629;-51
2022/10/23 07:10:50;;;;;;;187.37;92.47;;;10.50;99.90;;;;;;5116886;27;20199;-51
2022/10/23 07:13:18;;;;;;;425.50;209.33;;;10.60;99.90;;;;;;5124779;27;20203;-51
2022/10/23 07:15:46;;;;;;;684.43;354.27;;;10.60;99.90;;;;;;5130575;27;20301;-51
2022/10/23 07:18:15;;;;;;;636.37;353.07;;;10.70;99.90;;;;;;5127389;27;20227;-51
2022/10/23 07:20:45;;;;;;;277.63;96.03;;;10.70;99.90;;;;;;5130717;27;20250;-51
2022/10/23 07:23:15;;;;;;;235.00;85.03;;;10.80;99.90;;;;;;5126056;27;20323;-51
2022/10/23 07:25:43;;;;;;;553.17;222.97;;;10.90;99.90;;;;;;5124156;27;20202;-52
2022/10/23 07:28:12;;;;;;;872.10;385.43;;;11.10;99.90;;;;;;5106597;27;20613;-51
2022/10/23 07:30:41;;;;;;;727.97;308.07;;;11.30;99.90;;;;;;5130257;27;20217;-52
2022/10/23 07:33:11;;;;;;;842.80;407.40;;;11.30;99.90;;;;;;5134198;27;20282;-51
2022/10/23 07:35:39;;;;;;;673.60;301.90;;;11.30;99.90;;;;;;5125440;27;20295;-52
2022/10/23 07:38:07;;;;;;;608.03;349.23;;;11.30;99.90;;;;;;5127196;27;20230;-51
2022/10/23 07:40:35;;;;;;;405.30;178.50;;;11.20;99.90;;;;;;5128362;27;20219;-51
2022/10/23 07:43:03;;;;;;;937.40;597.70;;;11.30;99.90;;;;;;5122632;27;20290;-51
2022/10/23 07:45:33;;;;;;;689.13;291.83;;;11.30;99.90;;;;;;5130117;27;20238;-52
2022/10/23 07:48:01;;;;;;;783.63;373.13;;;11.40;99.90;;;;;;5126605;27;20227;-52
2022/10/23 07:50:29;;;;;;;561.07;279.80;;;11.50;99.90;;;;;;5126994;27;20207;-51
2022/10/23 07:52:57;;;;;;;471.03;216.43;;;11.50;99.90;;;;;;5123503;27;20282;-51
2022/10/23 07:55:25;;;;;;;557.93;237.97;;;11.60;99.90;;;;;;5128965;27;20290;-51
2022/10/23 07:57:53;;;;;;;918.00;435.30;;;11.60;99.90;;;;;;5131365;27;20976;-51
2022/10/23 08:00:22;;;;;;;662.80;298.33;;;11.60;99.90;;;;;;5125432;27;20232;-52
2022/10/23 08:02:56;;;;;;;206.27;66.47;;;11.60;99.90;;;;;;5127619;27;20206;-50
2022/10/23 08:05:24;;;;;;;872.30;446.10;;;11.60;99.90;;;;;;5130430;27;20234;-52
2022/10/23 08:07:52;;;;;;;835.73;393.73;;;11.60;99.90;;;;;;5123058;27;20227;-52
2022/10/23 08:10:20;;;;;;;214.87;71.87;;;11.70;99.90;;;;;;5129701;27;20552;-50
2022/10/23 08:12:48;;;;;;;719.10;323.43;;;11.80;99.90;;;;;;5127521;27;20191;-51
2022/10/23 08:15:16;;;;;;;867.87;465.33;;;11.90;99.90;;;;;;5126935;27;20278;-51
2022/10/23 08:17:44;;;;;;;558.00;199.77;;;12.00;99.90;;;;;;5127168;27;20309;-52
2022/10/23 08:20:14;;;;;;;596.37;307.93;;;12.10;99.90;;;;;;5127282;27;20330;-51
2022/10/23 08:22:42;;;;;;;707.00;341.70;;;12.20;99.90;;;;;;5121543;27;20723;-52
2022/10/23 08:25:10;;;;;;;406.13;145.83;;;12.40;99.90;;;;;;5118760;27;20219;-51
2022/10/23 08:27:39;;;;;;;749.20;354.30;;;12.50;99.90;;;;;;5128187;27;20238;-51
2022/10/23 08:30:08;;;;;;;527.80;231.60;;;12.70;99.90;;;;;;5129449;27;20206;-51
2022/10/23 08:32:36;;;;;;;626.20;203.97;;;12.80;99.90;;;;;;5128441;27;20660;-51
2022/10/23 08:35:05;;;;;;;809.10;323.03;;;13.00;99.90;;;;;;5128362;27;20298;-50
2022/10/23 08:37:34;;;;;;;917.40;340.23;;;13.10;99.90;;;;;;5128990;27;20747;-52
2022/10/23 08:40:03;;;;;;;676.00;204.60;;;13.20;99.90;;;;;;5128575;27;20207;-52
2022/10/23 08:42:31;;;;;;;550.23;158.70;;;13.30;99.90;;;;;;5124346;27;20224;-52
2022/10/23 08:45:05;;;;;;;773.47;294.50;;;13.40;99.90;;;;;;5121829;27;20286;-51
2022/10/23 08:47:38;;;;;;;1152.60;403.07;;;13.60;99.90;;;;;;5122565;27;20233;-51
2022/10/23 08:50:13;;;;;;;732.97;274.50;;;13.70;99.90;;;;;;5131538;27;20227;-51
2022/10/23 08:52:49;;;;;;;1248.60;536.77;;;13.70;99.90;;;;;;5126414;27;20292;-51
2022/10/23 08:55:23;;;;;;;1080.77;409.00;;;13.90;99.90;;;;;;5125240;27;20224;-51
2022/10/23 08:57:58;;;;;;;705.00;267.10;;;14.00;99.90;;;;;;5119695;27;20306;-52
2022/10/23 09:00:27;;;;;;;868.07;321.97;;;14.20;99.90;;;;;;5129080;27;20206;-51
2022/10/23 09:02:56;;;;;;;1128.27;410.03;;;14.30;99.90;;;;;;5127786;27;20317;-52
2022/10/23 09:05:28;;;;;;;948.47;372.40;;;14.40;99.90;;;;;;5123932;27;20302;-52
2022/10/23 09:08:12;;;;;;;845.97;332.97;;;14.50;99.90;;;;;;5118959;27;20228;-49
2022/10/23 09:10:58;;;;;;;1035.17;342.63;;;14.60;99.90;;;;;;5127659;27;20302;-52
2022/10/23 09:13:48;;;;;;;917.20;398.87;;;14.60;99.90;;;;;;5123595;27;20208;-51
2022/10/23 09:16:25;;;;;;;969.23;390.73;;;14.60;99.90;;;;;;5120894;27;20937;-51
2022/10/23 09:18:54;;;;;;;1026.23;450.43;;;14.50;99.90;;;;;;5121984;27;20202;-52
2022/10/23 09:21:26;;;;;;;813.00;307.33;;;14.50;99.90;;;;;;5122957;27;20569;-51
2022/10/23 09:23:55;;;;;;;960.70;417.17;;;14.50;99.90;;;;;;5123190;27;20207;-52
2022/10/23 09:26:23;;;;;;;1342.07;666.17;;;14.50;99.90;;;;;;5128590;27;20238;-51
2022/10/23 09:28:54;;;;;;;877.10;374.57;;;14.50;99.90;;;;;;5121687;27;20218;-52
2022/10/23 09:31:22;;;;;;;1382.17;644.87;;;14.50;99.90;;;;;;5119308;27;20237;-51
2022/10/23 09:33:58;;;;;;;1135.10;517.43;;;14.60;99.90;;;;;;5120688;27;20286;-51
2022/10/23 09:36:28;;;;;;;827.77;361.47;;;14.70;99.90;;;;;;5125233;27;20753;-50
2022/10/23 09:38:59;;;;;;;1331.00;587.53;;;14.80;99.90;;;;;;5129476;27;20207;-51
2022/10/23 09:41:29;;;;;;;866.25;352.02;;;14.80;99.90;;;;;;5127615;27;20225;-51
2022/10/23 09:44:02;;;;;;;1105.93;473.37;;;14.80;99.90;;;;;;5120892;27;20298;-51
2022/10/23 09:46:41;;;;;;;1201.10;530.73;;;14.80;99.90;;;;;;5116866;27;21044;-50
2022/10/23 09:49:17;;;;;;;895.20;440.70;;;14.90;99.90;;;;;;5125929;27;20286;-51
2022/10/23 09:52:00;;;;;;;1298.60;561.30;;;15.00;99.90;;;;;;5117755;27;21361;-51
2022/10/23 09:54:33;;;;;;;745.25;263.67;;;15.00;99.90;;;;;;5121059;27;20203;-50
2022/10/23 09:57:12;;;;;;;1385.73;438.57;;;15.10;99.90;;;;;;5129627;27;20226;-50
2022/10/23 09:59:41;;;;;;;1394.20;552.57;;;15.20;99.90;;;;;;5128353;27;20228;-51
2022/10/23 10:02:21;;;;;;;1544.80;695.15;;;15.20;99.90;;;;;;5126227;27;20777;-51
2022/10/23 10:04:49;;;;;;;1075.40;435.73;;;15.20;99.90;;;;;;5118564;27;20262;-51
2022/10/23 10:07:21;;;;;;;1285.68;534.60;;;15.30;99.90;;;;;;5126109;27;20726;-51
2022/10/23 10:09:52;;;;;;;1478.53;666.20;;;15.30;99.90;;;;;;5116025;27;20211;-51
2022/10/23 10:12:49;;;;;;;993.40;457.70;;;15.40;99.90;;;;;;5116314;27;20290;-50
2022/10/23 10:15:25;;;;;;;1165.10;439.37;;;15.40;99.90;;;;;;5117069;27;20289;-51
2022/10/23 10:18:02;;;;;;;1009.40;387.08;;;15.30;99.90;;;;;;5123169;27;20313;-51
2022/10/23 10:20:46;;;;;;;928.85;376.52;;;15.30;99.90;;;;;;5121301;27;20202;-51
2022/10/23 10:23:23;;;;;;;1119.43;462.77;;;15.40;99.90;;;;;;5120010;27;20237;-51
2022/10/23 10:26:01;;;;;;;1462.93;560.72;;;15.40;99.90;;;;;;5126079;27;20701;-50
2022/10/23 10:28:48;;;;;;;1331.30;503.02;;;15.50;99.90;;;;;;5121249;27;20334;-51
2022/10/23 10:31:23;;;;;;;1007.87;393.13;;;15.60;99.90;;;;;;5120308;27;20209;-52
2022/10/23 10:34:06;;;;;;;1157.32;535.00;;;15.60;99.90;;;;;;5118217;27;20281;-52
2022/10/23 10:36:46;;;;;;;1439.03;556.88;;;15.70;99.90;;;;;;5122057;27;20310;-51
2022/10/23 10:39:24;;;;;;;1288.45;543.53;;;15.70;99.90;;;;;;5123616;28;20309;-51
2022/10/23 10:42:07;;;;;;;1382.85;490.25;;;15.80;99.90;;;;;;5125564;27;20357;-50
2022/10/23 10:44:53;;;;;;;1159.55;441.33;;;15.80;99.90;;;;;;5131349;27;20207;-51
2022/10/23 10:47:26;;;;;;;1067.10;481.40;;;15.90;99.90;;;;;;5125884;27;20317;-51
2022/10/23 10:50:08;;;;;;;1131.45;500.70;;;15.90;99.90;;;;;;5128545;27;20282;-51
2022/10/23 10:52:46;;;;;;;1131.00;461.15;;;15.90;99.90;;;;;;5123831;27;20206;-49
2022/10/23 10:55:24;;;;;;;1538.30;619.80;;;15.90;99.90;;;;;;5123089;27;20667;-51
2022/10/23 10:58:02;;;;;;;1001.42;441.88;;;16.00;99.90;;;;;;5129220;27;20927;-49
2022/10/23 11:00:34;;;;;;;1309.25;504.10;;;16.00;99.90;;;;;;5126519;27;20697;-51
2022/10/23 11:03:11;;;;;;;1380.40;634.20;;;16.10;99.90;;;;;;5127260;27;20223;-51
2022/10/23 11:05:42;;;;;;;1433.75;581.97;;;16.10;99.90;;;;;;5126582;27;20203;-51
2022/10/23 11:08:15;;;;;;;1656.93;596.95;;;16.10;99.90;;;;;;5121266;27;20607;-51
2022/10/23 11:10:46;;;;;;;1437.40;581.55;;;16.20;99.90;;;;;;5118526;27;20290;-51
2022/10/23 11:13:26;;;;;;;1251.18;528.58;;;16.20;99.90;;;;;;5131546;27;20668;-51
2022/10/23 11:16:00;;;;;;;723.72;240.60;;;16.20;99.90;;;;;;5128964;27;20301;-51
2022/10/23 11:18:30;;;;;;;792.92;247.38;;;16.30;99.90;;;;;;5122201;27;20317;-51
2022/10/23 11:21:07;;;;;;;1001.42;501.50;;;16.30;99.90;;;;;;5120376;27;20229;-51
2022/10/23 11:24:00;;;;;;;1142.15;621.85;;;16.40;99.90;;;;;;5129293;27;20226;-51
2022/10/23 11:26:41;;;;;;;1233.70;497.80;;;16.40;99.90;;;;;;5125695;27;20257;-51
2022/10/23 11:29:33;;;;;;;1291.60;558.95;;;16.40;99.90;;;;;;5127288;27;20303;-51
2022/10/23 11:32:21;;;;;;;1125.18;537.05;;;16.40;99.90;;;;;;5131437;27;20202;-51
2022/10/23 11:35:04;;;;;;;1372.53;551.90;;;16.40;99.90;;;;;;5135301;27;20191;-51
2022/10/23 11:37:32;;;;;;;1546.07;591.70;;;16.40;99.90;;;;;;5128669;27;20782;-50
2022/10/23 11:40:13;;;;;;;1359.40;581.10;;;16.30;99.90;;;;;;5126540;27;20293;-51
2022/10/23 11:42:48;;;;;;;1398.95;554.58;;;16.30;99.90;;;;;;5128777;27;20333;-51
2022/10/23 11:45:33;;;;;;;1310.65;639.35;;;16.40;99.90;;;;;;5134539;27;20241;-51
2022/10/23 11:48:03;;;;;;;1182.55;498.10;;;16.40;99.90;;;;;;5125907;27;20305;-51
2022/10/23 11:50:49;;;;;;;1209.05;507.58;;;16.40;99.90;;;;;;5117526;27;20742;-51
2022/10/23 11:53:37;;;;;;;1197.80;452.02;;;16.40;99.90;;;;;;5126720;27;20225;-51
2022/10/23 11:56:23;;;;;;;1044.88;390.50;;;16.40;99.90;;;;;;5127454;27;20209;-51
2022/10/23 11:58:53;;;;;;;1148.30;488.23;;;16.50;99.90;;;;;;5130674;27;20322;-50
2022/10/23 12:01:32;;;;;;;921.92;355.10;;;16.60;99.90;;;;;;5130614;27;20730;-52
2022/10/23 12:04:04;;;;;;;1252.22;585.20;;;16.70;99.90;;;;;;5130855;27;20549;-51
2022/10/23 12:06:38;;;;;;;1650.82;684.60;;;16.70;99.90;;;;;;5128853;27;20740;-51
2022/10/23 12:09:19;;;;;;;1333.95;613.97;;;16.70;99.90;;;;;;5130638;27;20217;-50
2022/10/23 12:11:50;;;;;;;1463.95;542.55;;;16.80;99.90;;;;;;5123623;27;20210;-50
2022/10/23 12:14:31;;;;;;;1195.63;492.73;;;16.80;99.90;;;;;;5130098;27;20202;-51
2022/10/23 12:17:01;;;;;;;1361.72;582.38;;;16.80;99.90;;;;;;5126888;27;20301;-50
2022/10/23 12:19:30;;;;;;;1087.35;490.58;;;16.70;99.90;;;;;;5130917;27;20213;-51
2022/10/23 12:22:01;;;;;;;1441.07;560.17;;;16.70;99.90;;;;;;5118283;27;20760;-51
2022/10/23 12:24:47;;;;;;;1364.38;604.42;;;16.60;99.90;;;;;;5128074;27;20294;-51
2022/10/23 12:27:33;;;;;;;1184.53;643.92;;;16.50;99.90;;;;;;5122520;27;20591;-50
2022/10/23 12:30:15;;;;;;;898.80;350.48;;;16.50;99.90;;;;;;5123359;27;20289;-50
2022/10/23 12:33:00;;;;;;;1218.65;550.33;;;16.60;99.90;;;;;;5128900;27;20199;-50
2022/10/23 12:35:49;;;;;;;1501.47;692.00;;;16.60;99.90;;;;;;5128942;27;20293;-51